createdAt,value
2018-12-11T00:02:29.604Z,1.17
2018-12-11T00:05:06.253Z,1.00
2018-12-11T00:07:40.993Z,1.40
2018-12-11T00:10:16.095Z,2.17
2018-12-11T00:12:50.842Z,0.90
2018-12-11T00:15:27.820Z,1.40
2018-12-11T00:18:04.521Z,1.00
2018-12-11T00:20:41.038Z,1.60
2018-12-11T00:23:16.049Z,0.70
2018-12-11T00:25:50.781Z,1.37
2018-12-11T00:28:27.423Z,0.90
2018-12-11T00:31:04.411Z,1.00
2018-12-11T00:33:42.093Z,0.70
2018-12-11T00:36:18.810Z,1.00
2018-12-11T00:38:53.520Z,1.33
2018-12-11T00:41:30.195Z,1.13
2018-12-11T00:44:04.872Z,0.83
2018-12-11T00:46:40.120Z,1.23
2018-12-11T00:49:16.889Z,0.70
2018-12-11T00:51:52.426Z,1.17
2018-12-11T00:54:29.307Z,1.50
2018-12-11T00:57:05.586Z,2.13
2018-12-11T00:59:41.775Z,1.23
2018-12-11T01:02:17.825Z,2.13
2018-12-11T01:04:51.674Z,0.70
2018-12-11T01:07:25.895Z,0.80
2018-12-11T01:10:03.175Z,1.40
2018-12-11T01:12:37.567Z,0.60
2018-12-11T01:15:14.463Z,1.23
2018-12-11T01:17:49.157Z,1.10
2018-12-11T01:20:23.929Z,1.27
2018-12-11T01:22:58.251Z,0.97
2018-12-11T01:25:34.677Z,0.73
2018-12-11T01:28:09.422Z,1.77
2018-12-11T01:30:46.507Z,1.27
2018-12-11T01:33:21.416Z,1.10
2018-12-11T01:35:58.579Z,1.30
2018-12-11T01:38:33.171Z,1.03
2018-12-11T01:41:07.985Z,0.90
2018-12-11T01:43:45.045Z,2.10
2018-12-11T01:46:19.766Z,1.00
2018-12-11T01:48:56.757Z,0.80
2018-12-11T01:51:33.431Z,1.67
2018-12-11T01:54:11.272Z,1.10
2018-12-11T01:56:48.502Z,1.30
2018-12-11T01:59:23.301Z,1.17
2018-12-11T02:01:56.803Z,1.10
2018-12-11T02:04:31.801Z,1.80
2018-12-11T02:07:04.693Z,1.00
2018-12-11T02:09:39.768Z,0.70
2018-12-11T02:12:15.226Z,0.80
2018-12-11T02:14:51.279Z,1.00
2018-12-11T02:17:27.299Z,1.73
2018-12-11T02:20:01.152Z,0.63
2018-12-11T02:22:35.574Z,0.87
2018-12-11T02:25:24.323Z,1.23
2018-12-11T02:28:00.644Z,1.43
2018-12-11T02:30:37.262Z,0.60
2018-12-11T02:33:11.906Z,1.37
2018-12-11T02:35:46.588Z,0.70
2018-12-11T02:38:21.492Z,1.67
2018-12-11T02:40:56.278Z,0.80
2018-12-11T02:43:32.904Z,0.93
2018-12-11T02:46:09.465Z,0.73
2018-12-11T02:48:46.439Z,0.80
2018-12-11T02:51:22.924Z,0.83
2018-12-11T02:53:57.899Z,1.70
2018-12-11T02:56:33.114Z,1.00
2018-12-11T02:59:07.786Z,0.70
2018-12-11T03:01:44.771Z,1.23
2018-12-11T03:04:21.485Z,0.80
2018-12-11T03:06:57.930Z,0.80
2018-12-11T03:09:31.627Z,2.10
2018-12-11T03:12:06.689Z,0.90
2018-12-11T03:14:40.526Z,0.80
2018-12-11T03:17:16.810Z,0.77
2018-12-11T03:19:50.453Z,0.80
2018-12-11T03:22:24.353Z,0.87
2018-12-11T03:24:59.921Z,1.00
2018-12-11T03:27:35.794Z,0.70
2018-12-11T03:30:11.115Z,0.80
2018-12-11T03:32:45.238Z,0.70
2018-12-11T03:35:21.026Z,1.27
2018-12-11T03:37:59.662Z,0.97
2018-12-11T03:40:36.545Z,0.90
2018-12-11T03:43:13.348Z,0.87
2018-12-11T03:45:50.031Z,1.13
2018-12-11T03:48:25.079Z,1.07
2018-12-11T03:51:00.065Z,0.90
2018-12-11T03:53:34.550Z,0.83
2018-12-11T03:56:11.536Z,1.80
2018-12-11T03:58:50.577Z,1.13
2018-12-11T04:01:27.395Z,1.73
2018-12-11T04:04:08.315Z,1.17
2018-12-11T04:06:44.881Z,1.47
2018-12-11T04:09:19.659Z,1.33
2018-12-11T04:12:08.002Z,0.73
2018-12-11T04:14:43.278Z,1.33
2018-12-11T04:17:17.023Z,0.83
2018-12-11T04:19:50.873Z,1.53
2018-12-11T04:22:24.612Z,1.13
2018-12-11T04:24:58.945Z,0.63
2018-12-11T04:27:32.923Z,1.17
2018-12-11T04:30:08.489Z,1.30
2018-12-11T04:32:42.831Z,1.00
2018-12-11T04:35:18.529Z,0.90
2018-12-11T04:37:52.313Z,0.83
2018-12-11T04:40:26.133Z,1.00
2018-12-11T04:43:02.029Z,1.60
2018-12-11T04:45:37.389Z,1.70
2018-12-11T04:48:13.077Z,0.50
2018-12-11T04:50:55.241Z,0.70
2018-12-11T04:53:30.168Z,0.83
2018-12-11T04:56:08.981Z,1.63
2018-12-11T04:58:43.825Z,1.10
2018-12-11T05:01:20.759Z,1.00
2018-12-11T05:03:57.835Z,2.33
2018-12-11T05:06:33.500Z,1.17
2018-12-11T05:09:22.131Z,1.53
2018-12-11T05:11:58.256Z,1.33
2018-12-11T05:14:32.968Z,1.03
2018-12-11T05:17:07.893Z,1.00
2018-12-11T05:19:45.177Z,2.20
2018-12-11T05:22:23.868Z,3.50
2018-12-11T05:24:58.673Z,1.27
2018-12-11T05:27:34.115Z,1.83
2018-12-11T05:30:08.645Z,3.23
2018-12-11T05:32:41.864Z,1.87
2018-12-11T05:35:17.594Z,1.20
2018-12-11T05:37:53.518Z,1.43
2018-12-11T05:40:28.242Z,1.17
2018-12-11T05:43:04.217Z,1.23
2018-12-11T05:45:38.110Z,1.43
2018-12-11T05:48:14.141Z,1.03
2018-12-11T05:50:48.465Z,1.53
2018-12-11T05:53:23.786Z,1.17
2018-12-11T05:56:00.804Z,0.90
2018-12-11T05:58:35.727Z,2.73
2018-12-11T06:01:10.164Z,1.77
2018-12-11T06:03:47.454Z,1.93
2018-12-11T06:06:24.241Z,1.57
2018-12-11T06:09:03.357Z,0.93
2018-12-11T06:11:38.060Z,1.90
2018-12-11T06:14:13.628Z,0.90
2018-12-11T06:16:48.850Z,1.10
2018-12-11T06:19:26.630Z,0.80
2018-12-11T06:22:03.662Z,1.63
2018-12-11T06:24:38.344Z,1.47
2018-12-11T06:27:15.553Z,3.07
2018-12-11T06:29:52.488Z,1.03
2018-12-11T06:32:29.174Z,1.10
2018-12-11T06:35:05.726Z,1.53
2018-12-11T06:37:40.818Z,1.33
2018-12-11T06:40:17.317Z,0.77
2018-12-11T06:42:50.848Z,0.80
2018-12-11T06:45:26.623Z,2.03
2018-12-11T06:48:03.955Z,1.07
2018-12-11T06:50:37.479Z,1.67
2018-12-11T06:53:12.330Z,0.97
2018-12-11T06:55:48.201Z,1.20
2018-12-11T06:58:24.199Z,1.43
2018-12-11T07:00:58.503Z,1.77
2018-12-11T07:03:36.205Z,0.97
2018-12-11T07:06:13.290Z,1.50
2018-12-11T07:08:51.950Z,1.43
2018-12-11T07:11:28.879Z,1.00
2018-12-11T07:14:05.669Z,1.37
2018-12-11T07:16:40.551Z,1.47
2018-12-11T07:19:17.455Z,2.83
2018-12-11T07:21:54.424Z,1.70
2018-12-11T07:24:35.248Z,2.07
2018-12-11T07:27:10.220Z,1.40
2018-12-11T07:29:45.292Z,1.37
2018-12-11T07:32:19.989Z,1.20
2018-12-11T07:34:56.612Z,1.43
2018-12-11T07:37:32.284Z,1.30
2018-12-11T07:40:07.359Z,2.23
2018-12-11T07:42:46.657Z,1.63
2018-12-11T07:45:23.318Z,1.50
2018-12-11T07:47:58.736Z,2.30
2018-12-11T07:50:30.680Z,2.30
2018-12-11T07:53:06.500Z,1.77
2018-12-11T07:55:39.223Z,1.57
2018-12-11T07:58:13.632Z,2.23
2018-12-11T08:00:49.497Z,1.30
2018-12-11T08:03:23.126Z,1.40
2018-12-11T08:05:58.752Z,2.73
2018-12-11T08:08:34.632Z,1.23
2018-12-11T08:11:10.720Z,1.40
2018-12-11T08:13:45.966Z,1.60
2018-12-11T08:16:21.955Z,1.77
2018-12-11T08:18:58.590Z,2.03
2018-12-11T08:21:33.686Z,1.70
2018-12-11T08:24:08.274Z,1.57
2018-12-11T08:26:43.399Z,2.40
2018-12-11T08:29:23.915Z,2.03
2018-12-11T08:32:01.585Z,1.93
2018-12-11T08:34:38.545Z,2.57
2018-12-11T08:37:13.580Z,2.07
2018-12-11T08:39:46.952Z,3.23
2018-12-11T08:42:22.458Z,1.60
2018-12-11T08:44:57.236Z,1.50
2018-12-11T08:47:34.918Z,2.07
2018-12-11T08:50:09.602Z,1.73
2018-12-11T08:52:46.818Z,1.90
2018-12-11T08:55:23.398Z,1.97
2018-12-11T08:58:00.214Z,1.93
2018-12-11T09:00:35.145Z,2.00
2018-12-11T09:03:10.858Z,1.77
2018-12-11T09:05:47.514Z,3.57
2018-12-11T09:08:24.594Z,2.13
2018-12-11T09:11:01.192Z,1.90
2018-12-11T09:13:37.282Z,1.97
2018-12-11T09:16:13.047Z,2.60
2018-12-11T09:18:46.898Z,2.43
2018-12-11T09:21:23.312Z,2.40
2018-12-11T09:23:58.933Z,3.03
2018-12-11T09:26:35.532Z,2.67
2018-12-11T09:29:10.233Z,2.30
2018-12-11T09:31:47.214Z,2.23
2018-12-11T09:34:22.075Z,2.33
2018-12-11T09:36:58.987Z,2.03
2018-12-11T09:39:35.417Z,2.23
2018-12-11T09:42:07.593Z,2.37
2018-12-11T09:44:42.594Z,2.33
2018-12-11T09:47:23.729Z,2.03
2018-12-11T09:50:03.578Z,2.20
2018-12-11T09:52:39.044Z,2.13
2018-12-11T09:55:15.826Z,2.20
2018-12-11T09:57:54.336Z,1.70
2018-12-11T10:00:29.564Z,2.07
2018-12-11T10:03:06.265Z,3.50
2018-12-11T10:05:41.283Z,2.57
2018-12-11T10:08:18.090Z,1.80
2018-12-11T10:10:53.955Z,2.63
2018-12-11T10:13:29.643Z,2.23
2018-12-11T10:16:03.328Z,2.40
2018-12-11T10:18:40.206Z,2.73
2018-12-11T10:21:14.852Z,2.17
2018-12-11T10:23:54.713Z,2.27
2018-12-11T10:26:29.415Z,2.33
2018-12-11T10:29:01.049Z,2.83
2018-12-11T10:31:34.188Z,2.77
2018-12-11T10:34:07.899Z,2.47
2018-12-11T10:36:43.540Z,1.97
2018-12-11T10:39:20.076Z,2.03
2018-12-11T10:41:56.628Z,1.93
2018-12-11T10:44:33.873Z,2.40
2018-12-11T10:47:08.993Z,2.40
2018-12-11T10:49:45.979Z,2.53
2018-12-11T10:52:22.999Z,2.03
2018-12-11T10:54:57.661Z,2.70
2018-12-11T10:57:35.240Z,2.20
2018-12-11T11:00:16.670Z,2.47
2018-12-11T11:02:56.586Z,2.27
2018-12-11T11:05:31.288Z,2.23
2018-12-11T11:08:06.325Z,3.00
2018-12-11T11:10:40.924Z,2.47
2018-12-11T11:13:20.026Z,2.93
2018-12-11T11:15:54.860Z,2.30
2018-12-11T11:18:32.900Z,2.47
2018-12-11T11:21:10.468Z,3.17
2018-12-11T11:23:43.877Z,3.10
2018-12-11T11:26:20.271Z,3.23
2018-12-11T11:28:56.461Z,2.87
2018-12-11T11:31:29.007Z,3.00
2018-12-11T11:34:05.450Z,3.40
2018-12-11T11:36:41.372Z,2.30
2018-12-11T11:39:19.053Z,2.30
2018-12-11T11:41:59.013Z,2.57
2018-12-11T11:44:34.908Z,2.87
2018-12-11T11:47:10.800Z,2.87
2018-12-11T11:49:49.967Z,2.33
2018-12-11T11:52:26.739Z,2.23
2018-12-11T11:55:02.313Z,2.13
2018-12-11T11:57:40.441Z,3.90
2018-12-11T12:00:16.242Z,3.33
2018-12-11T12:02:51.565Z,2.03
2018-12-11T12:05:28.499Z,2.80
2018-12-11T12:08:05.981Z,2.10
2018-12-11T12:10:43.537Z,2.77
2018-12-11T12:13:25.870Z,2.53
2018-12-11T12:16:01.220Z,2.17
2018-12-11T12:18:38.940Z,2.27
2018-12-11T12:21:14.633Z,2.03
2018-12-11T12:23:51.107Z,2.03
2018-12-11T12:33:21.211Z,3.17
2018-12-11T12:35:55.989Z,2.70
2018-12-11T12:38:30.811Z,2.10
2018-12-11T12:41:09.481Z,2.93
2018-12-11T12:43:47.480Z,2.10
2018-12-11T12:46:24.681Z,2.60
2018-12-11T12:49:00.069Z,2.90
2018-12-11T12:51:31.841Z,3.20
2018-12-11T12:54:05.715Z,2.90
2018-12-11T12:56:38.922Z,2.67
2018-12-11T12:59:15.178Z,3.03
2018-12-11T13:01:50.775Z,2.20
2018-12-11T13:04:26.813Z,2.60
2018-12-11T13:07:00.529Z,2.10
2018-12-11T13:09:36.293Z,2.93
2018-12-11T13:12:13.446Z,3.13
2018-12-11T13:14:49.334Z,3.43
2018-12-11T13:17:24.898Z,3.23
2018-12-11T13:20:01.286Z,2.77
2018-12-11T13:22:37.963Z,2.83
2018-12-11T13:25:12.634Z,2.77
2018-12-11T13:27:49.360Z,3.47
2018-12-11T13:30:24.255Z,4.90
2018-12-11T13:33:01.067Z,3.10
2018-12-11T13:35:38.150Z,2.87
2018-12-11T13:38:14.794Z,2.57
2018-12-11T13:40:51.780Z,2.87
2018-12-11T13:43:28.236Z,2.60
2018-12-11T13:46:03.034Z,3.87
2018-12-11T13:48:39.864Z,3.63
2018-12-11T13:51:14.653Z,3.17
2018-12-11T13:53:51.134Z,3.10
2018-12-11T13:56:40.863Z,2.90
2018-12-11T13:59:19.495Z,3.43
2018-12-11T14:01:54.762Z,2.47
2018-12-11T14:04:28.472Z,2.27
2018-12-11T14:07:04.236Z,3.37
2018-12-11T14:09:41.767Z,3.47
2018-12-11T14:12:15.655Z,3.03
2018-12-11T14:14:51.258Z,3.03
2018-12-11T14:17:25.432Z,2.47
2018-12-11T14:20:03.161Z,2.57
2018-12-11T14:22:39.166Z,2.33
2018-12-11T14:25:15.938Z,2.90
2018-12-11T14:27:50.268Z,3.97
2018-12-11T14:30:27.124Z,4.30
2018-12-11T14:33:03.705Z,3.30
2018-12-11T14:35:38.987Z,2.77
2018-12-11T14:38:15.791Z,2.47
2018-12-11T14:40:52.649Z,3.73
2018-12-11T14:43:29.590Z,2.47
2018-12-11T14:46:05.974Z,2.73
2018-12-11T14:48:40.914Z,2.73
2018-12-11T14:51:17.640Z,3.13
2018-12-11T14:53:54.965Z,2.40
2018-12-11T14:56:30.227Z,3.23
2018-12-11T14:59:06.098Z,2.67
2018-12-11T15:01:40.923Z,3.27
2018-12-11T15:04:18.060Z,3.80
2018-12-11T15:06:55.602Z,2.97
2018-12-11T15:09:37.568Z,2.90
2018-12-11T15:12:13.960Z,2.80
2018-12-11T15:14:50.743Z,2.80
2018-12-11T15:17:25.854Z,2.90
2018-12-11T15:19:59.962Z,2.63
2018-12-11T15:22:35.547Z,3.57
2018-12-11T15:25:10.914Z,2.47
2018-12-11T15:27:47.110Z,3.47
2018-12-11T15:30:23.503Z,2.87
2018-12-11T15:32:59.958Z,2.23
2018-12-11T15:35:33.842Z,3.60
2018-12-11T15:38:07.606Z,2.53
2018-12-11T15:40:43.106Z,3.00
2018-12-11T15:43:18.031Z,2.40
2018-12-11T15:46:00.867Z,4.07
2018-12-11T15:48:33.504Z,3.83
2018-12-11T15:51:12.838Z,2.67
2018-12-11T15:53:49.902Z,2.33
2018-12-11T15:56:26.879Z,2.43
2018-12-11T15:59:01.453Z,2.37
2018-12-11T16:01:38.298Z,4.17
2018-12-11T16:04:17.686Z,3.27
2018-12-11T16:06:54.996Z,2.43
2018-12-11T16:09:39.699Z,2.67
2018-12-11T16:12:14.434Z,2.53
2018-12-11T16:14:49.054Z,3.13
2018-12-11T16:17:25.032Z,3.37
2018-12-11T16:20:00.468Z,3.50
2018-12-11T16:22:34.302Z,3.87
2018-12-11T16:25:08.956Z,2.20
2018-12-11T16:27:44.919Z,3.17
2018-12-11T16:30:20.924Z,4.27
2018-12-11T16:32:56.705Z,2.63
2018-12-11T16:35:32.307Z,2.83
2018-12-11T16:38:09.449Z,2.30
2018-12-11T16:40:45.923Z,3.63
2018-12-11T16:43:23.525Z,2.97
2018-12-11T16:46:00.677Z,3.60
2018-12-11T16:48:35.589Z,4.50
2018-12-11T16:51:11.951Z,3.00
2018-12-11T16:53:49.355Z,2.40
2018-12-11T16:56:24.624Z,3.13
2018-12-11T16:58:59.155Z,3.43
2018-12-11T17:01:36.391Z,2.50
2018-12-11T17:04:13.735Z,2.47
2018-12-11T17:06:48.821Z,3.40
2018-12-11T17:09:25.949Z,2.93
2018-12-11T17:12:02.988Z,2.67
2018-12-11T17:14:38.238Z,3.27
2018-12-11T17:17:14.964Z,3.67
2018-12-11T17:19:51.782Z,3.63
2018-12-11T17:22:27.129Z,3.10
2018-12-11T17:25:05.973Z,3.30
2018-12-11T17:27:40.913Z,3.33
2018-12-11T17:30:15.005Z,3.33
2018-12-11T17:32:49.264Z,3.17
2018-12-11T17:35:23.321Z,4.20
2018-12-11T17:37:59.358Z,3.43
2018-12-11T17:40:35.949Z,3.47
2018-12-11T17:43:12.416Z,3.60
2018-12-11T17:45:46.178Z,3.17
2018-12-11T17:48:23.373Z,3.50
2018-12-11T17:50:58.367Z,3.03
2018-12-11T17:53:37.160Z,4.60
2018-12-11T17:56:14.264Z,3.70
2018-12-11T17:58:51.022Z,3.47
2018-12-11T18:01:31.546Z,3.13
2018-12-11T18:04:06.950Z,3.73
2018-12-11T18:06:41.764Z,3.17
2018-12-11T18:09:17.106Z,4.33
2018-12-11T18:11:54.735Z,5.43
2018-12-11T18:14:30.310Z,3.93
2018-12-11T18:17:07.027Z,4.20
2018-12-11T18:19:41.757Z,3.47
2018-12-11T18:22:16.961Z,3.00
2018-12-11T18:25:06.197Z,4.77
2018-12-11T18:27:43.052Z,4.00
2018-12-11T18:30:17.909Z,5.20
2018-12-11T18:32:56.455Z,3.33
2018-12-11T18:35:30.628Z,3.60
2018-12-11T18:38:04.326Z,3.77
2018-12-11T18:40:40.105Z,3.93
2018-12-11T18:43:13.994Z,3.60
2018-12-11T18:45:52.673Z,3.80
2018-12-11T18:48:31.424Z,4.33
2018-12-11T18:51:06.257Z,3.27
2018-12-11T18:53:42.677Z,3.50
2018-12-11T18:56:19.109Z,4.23
2018-12-11T18:58:53.489Z,3.90
2018-12-11T19:01:34.576Z,3.47
2018-12-11T19:04:12.492Z,3.93
2018-12-11T19:06:51.261Z,4.90
2018-12-11T19:09:25.856Z,3.30
2018-12-11T19:12:03.095Z,3.47
2018-12-11T19:14:39.118Z,3.77
2018-12-11T19:17:15.880Z,3.53
2018-12-11T19:19:52.764Z,3.50
2018-12-11T19:22:31.674Z,3.47
2018-12-11T19:25:08.632Z,3.90
2018-12-11T19:27:47.368Z,4.37
2018-12-11T19:30:23.204Z,3.60
2018-12-11T19:32:58.964Z,3.23
2018-12-11T19:35:36.907Z,4.10
2018-12-11T19:38:13.944Z,6.70
2018-12-11T19:40:54.506Z,3.43
2018-12-11T19:43:33.869Z,3.77
2018-12-11T19:46:10.250Z,3.53
2018-12-11T19:48:45.698Z,4.13
2018-12-11T19:51:20.367Z,4.47
2018-12-11T19:53:56.013Z,3.73
2018-12-11T19:56:33.185Z,4.90
2018-12-11T19:59:09.149Z,3.40
2018-12-11T20:01:43.398Z,3.47
2018-12-11T20:04:20.377Z,3.80
2018-12-11T20:06:56.037Z,3.33
2018-12-11T20:09:31.929Z,3.80
2018-12-11T20:12:06.891Z,4.17
2018-12-11T20:14:41.689Z,4.17
2018-12-11T20:17:17.033Z,5.77
2018-12-11T20:19:53.959Z,3.70
2018-12-11T20:22:30.739Z,4.87
2018-12-11T20:25:09.619Z,4.27
2018-12-11T20:27:44.774Z,4.97
2018-12-11T20:30:21.676Z,5.23
2018-12-11T20:33:00.713Z,5.40
2018-12-11T20:35:36.397Z,4.67
2018-12-11T20:38:14.227Z,5.03
2018-12-11T20:40:51.738Z,4.10
2018-12-11T20:43:27.512Z,5.93
2018-12-11T20:46:05.612Z,4.27
2018-12-11T20:48:43.577Z,4.20
2018-12-11T20:51:20.850Z,4.83
2018-12-11T20:53:57.740Z,4.47
2018-12-11T20:56:34.466Z,4.17
2018-12-11T20:59:13.945Z,4.03
2018-12-11T21:01:51.474Z,4.87
2018-12-11T21:04:28.054Z,4.50
2018-12-11T21:07:04.656Z,5.60
2018-12-11T21:09:40.146Z,4.93
2018-12-11T21:12:15.968Z,5.40
2018-12-11T21:14:52.036Z,4.70
2018-12-11T21:17:31.913Z,4.33
2018-12-11T21:20:08.491Z,4.90
2018-12-11T21:22:44.367Z,4.53
2018-12-11T21:25:23.142Z,4.53
2018-12-11T21:27:58.024Z,4.27
2018-12-11T21:30:32.996Z,4.57
2018-12-11T21:33:09.794Z,5.03
2018-12-11T21:35:46.542Z,5.40
2018-12-11T21:38:18.419Z,4.90
2018-12-11T21:40:56.078Z,5.00
2018-12-11T21:43:30.722Z,4.43
2018-12-11T21:46:04.832Z,4.17
2018-12-11T21:48:40.751Z,4.43
2018-12-11T21:51:19.138Z,5.03
2018-12-11T21:53:55.793Z,4.77
2018-12-11T21:56:35.228Z,4.63
2018-12-11T21:59:12.278Z,4.17
2018-12-11T22:01:47.120Z,4.20
2018-12-11T22:04:23.928Z,5.40
2018-12-11T22:07:00.954Z,4.70
2018-12-11T22:09:35.821Z,4.20
2018-12-11T22:12:11.227Z,5.43
2018-12-11T22:14:48.165Z,4.90
2018-12-11T22:17:23.483Z,5.43
2018-12-11T22:19:59.163Z,5.30
2018-12-11T22:22:34.769Z,4.33
2018-12-11T22:25:09.871Z,4.30
2018-12-11T22:27:46.369Z,3.97
2018-12-11T22:30:19.859Z,4.47
2018-12-11T22:32:56.241Z,5.00
2018-12-11T22:35:30.341Z,4.80
2018-12-11T22:38:07.109Z,4.90
2018-12-11T22:40:41.685Z,4.53
2018-12-11T22:43:16.608Z,4.40
2018-12-11T22:45:51.304Z,4.37
2018-12-11T22:48:29.169Z,4.40
2018-12-11T22:51:05.999Z,4.10
2018-12-11T22:53:43.090Z,5.30
2018-12-11T22:56:17.782Z,4.67
2018-12-11T22:58:56.825Z,5.33
2018-12-11T23:01:32.674Z,4.60
2018-12-11T23:04:07.135Z,4.43
2018-12-11T23:06:44.072Z,4.13
2018-12-11T23:09:20.600Z,3.60
2018-12-11T23:12:00.174Z,4.43
2018-12-11T23:14:36.854Z,3.90
2018-12-11T23:17:13.524Z,4.50
2018-12-11T23:19:48.122Z,4.17
2018-12-11T23:22:22.675Z,4.83
2018-12-11T23:24:59.879Z,4.73
2018-12-11T23:27:35.207Z,4.20
2018-12-11T23:30:10.426Z,4.10
2018-12-11T23:32:45.837Z,5.83
2018-12-11T23:35:22.199Z,3.90
2018-12-11T23:37:56.860Z,4.20
2018-12-11T23:40:32.675Z,4.27
2018-12-11T23:43:06.855Z,4.47
2018-12-11T23:45:40.306Z,4.10
2018-12-11T23:48:14.395Z,3.93
2018-12-11T23:50:50.718Z,4.20
2018-12-11T23:53:27.233Z,4.53
2018-12-11T23:56:03.864Z,4.00
2018-12-11T23:58:40.402Z,3.90
